Time;durP1;ratioP1;P1;durP2;ratioP2;P2;SDS_P1;SDS_P2;PMS_P1;PMS_P2;Temp;Humidity;BMP_temperature;BMP_pressure;BME280_temperature;BME280_humidity;BME280_pressure;Samples;Min_cycle;Max_cycle;Signal;HPM_P1;HPM_P2
2021/05/11 00:01:19;;;;;;;4.50;3.10;;;16.40;99.90;;;;;;4974300;28;20490;-79
2021/05/11 00:06:47;;;;;;;4.85;3.50;;;16.20;99.90;;;;;;4971893;28;20058;-83
2021/05/11 00:09:16;;;;;;;4.20;3.75;;;16.00;99.90;;;;;;5008159;28;20069;-81
2021/05/11 00:11:43;;;;;;;4.90;3.78;;;15.90;99.90;;;;;;5008373;28;20085;-82
2021/05/11 00:14:15;;;;;;;7.75;4.20;;;15.80;99.90;;;;;;5007975;28;20054;-82
2021/05/11 00:16:46;;;;;;;5.18;3.95;;;15.80;99.90;;;;;;5006717;28;20524;-83
2021/05/11 00:22:06;;;;;;;6.40;4.40;;;15.80;99.90;;;;;;5005126;28;20046;-82
2021/05/11 00:24:43;;;;;;;5.40;4.20;;;15.80;99.90;;;;;;5006017;28;20050;-83
2021/05/11 00:27:26;;;;;;;5.90;4.22;;;15.70;99.90;;;;;;5005521;28;20050;-83
2021/05/11 00:30:03;;;;;;;6.97;4.38;;;15.70;99.90;;;;;;5005309;28;20050;-83
2021/05/11 00:39:04;;;;;;;5.30;4.50;;;15.80;99.90;;;;;;4994734;28;20054;-80
2021/05/11 00:41:45;;;;;;;7.65;5.05;;;15.90;99.90;;;;;;5001718;28;20048;-80
2021/05/11 00:44:50;;;;;;;7.75;4.35;;;15.90;99.90;;;;;;5001816;28;20054;-78
2021/05/11 00:50:40;;;;;;;8.00;5.00;;;15.80;99.90;;;;;;5003604;28;20062;-80
2021/05/11 00:53:07;;;;;;;7.32;4.90;;;15.80;99.90;;;;;;5005579;28;20053;-79
2021/05/11 00:55:33;;;;;;;7.07;5.15;;;15.60;99.90;;;;;;5002762;28;20062;-79
2021/05/11 00:58:01;;;;;;;6.68;5.63;;;15.60;99.90;;;;;;5001498;28;20577;-79
2021/05/11 01:00:30;;;;;;;8.05;5.90;;;15.50;99.90;;;;;;5002470;28;20066;-80
2021/05/11 01:02:56;;;;;;;8.40;5.90;;;15.50;99.90;;;;;;5000514;28;20046;-80
2021/05/11 01:05:23;;;;;;;7.10;5.70;;;15.50;99.90;;;;;;4999760;28;20050;-80
2021/05/11 01:07:49;;;;;;;7.05;5.55;;;15.60;99.90;;;;;;5002267;28;20077;-79
2021/05/11 01:10:16;;;;;;;8.32;5.68;;;15.50;99.90;;;;;;5001459;28;20102;-80
2021/05/11 01:12:42;;;;;;;7.38;5.85;;;15.50;99.90;;;;;;5002411;28;20055;-80
2021/05/11 01:15:11;;;;;;;7.90;6.25;;;15.50;99.90;;;;;;5001784;28;20073;-80
2021/05/11 01:17:38;;;;;;;7.65;6.80;;;15.40;99.90;;;;;;5001867;28;20159;-80
2021/05/11 01:20:08;;;;;;;7.55;6.50;;;15.30;99.90;;;;;;5002399;28;20110;-82
2021/05/11 01:22:45;;;;;;;8.65;6.93;;;15.20;99.90;;;;;;5003034;28;20054;-80
2021/05/11 01:25:18;;;;;;;8.57;6.78;;;15.10;99.90;;;;;;5002847;28;20474;-81
2021/05/11 01:27:52;;;;;;;;;;;15.10;99.90;;;;;;5001382;28;20089;-79
2021/05/11 01:30:51;;;;;;;8.00;6.90;;;15.00;99.90;;;;;;4999348;28;19923;-79
2021/05/11 01:50:04;;;;;;;10.27;7.50;;;15.10;99.90;;;;;;5133293;27;20457;-79
2021/05/11 01:55:36;;;;;;;9.18;7.93;;;15.20;99.90;;;;;;5131016;28;20039;-79
2021/05/11 02:22:53;;;;;;;11.57;10.40;;;15.40;99.90;;;;;;5090722;28;20063;-81
2021/05/11 02:25:20;;;;;;;12.18;10.90;;;15.40;99.90;;;;;;5090160;28;20050;-80
2021/05/11 02:27:47;;;;;;;12.85;10.60;;;15.20;99.90;;;;;;5089719;28;20052;-80
2021/05/11 02:30:14;;;;;;;12.32;11.13;;;15.30;99.90;;;;;;5091674;28;20048;-81
2021/05/11 02:32:42;;;;;;;12.02;10.82;;;15.30;99.90;;;;;;5091830;28;20056;-80
2021/05/11 02:35:11;;;;;;;12.98;11.35;;;15.40;99.90;;;;;;5091815;28;20044;-82
2021/05/11 02:37:38;;;;;;;12.60;11.38;;;15.30;99.90;;;;;;5090914;28;20048;-80
2021/05/11 02:40:07;;;;;;;12.90;11.60;;;15.40;99.90;;;;;;5090606;28;20083;-79
2021/05/11 02:42:34;;;;;;;13.63;11.05;;;15.50;99.90;;;;;;5090872;28;20056;-82
2021/05/11 02:45:02;;;;;;;11.63;10.30;;;15.50;99.90;;;;;;5093084;28;20060;-81
2021/05/11 02:47:28;;;;;;;12.02;10.82;;;15.50;99.90;;;;;;5094839;28;20108;-82
2021/05/11 02:49:54;;;;;;;11.45;10.30;;;15.60;99.90;;;;;;5094503;28;20098;-80
2021/05/11 02:52:22;;;;;;;11.18;8.77;;;15.60;99.90;;;;;;5094417;28;20063;-81
2021/05/11 02:54:48;;;;;;;9.75;8.75;;;15.60;99.90;;;;;;5092267;28;20044;-80
2021/05/11 02:57:15;;;;;;;13.35;8.60;;;15.60;99.90;;;;;;5086399;28;20071;-81
2021/05/11 02:59:41;;;;;;;10.00;8.95;;;15.60;99.90;;;;;;5081063;28;20112;-80
2021/05/11 03:02:09;;;;;;;9.57;8.57;;;15.60;99.90;;;;;;5079377;28;20048;-80
2021/05/11 03:04:35;;;;;;;11.43;9.27;;;15.60;99.90;;;;;;5078179;28;20072;-82
2021/05/11 03:07:02;;;;;;;10.48;9.43;;;15.60;99.90;;;;;;5077533;28;20169;-80
2021/05/11 03:09:29;;;;;;;12.57;10.60;;;15.60;99.90;;;;;;5076944;28;20106;-80
2021/05/11 03:11:56;;;;;;;11.57;10.30;;;15.60;99.90;;;;;;5077417;28;20446;-80
2021/05/11 03:14:23;;;;;;;12.07;10.88;;;15.60;99.90;;;;;;5077426;28;20048;-80
2021/05/11 03:16:53;;;;;;;12.43;11.13;;;15.60;99.90;;;;;;5077303;28;20394;-80
2021/05/11 03:19:19;;;;;;;12.88;11.52;;;15.60;99.90;;;;;;5077321;28;20411;-80
2021/05/11 03:21:46;;;;;;;15.75;12.00;;;15.60;99.90;;;;;;5078158;28;20525;-80
2021/05/11 03:24:12;;;;;;;13.68;12.27;;;15.50;99.90;;;;;;5080919;28;20063;-83
2021/05/11 03:26:39;;;;;;;13.27;11.88;;;15.50;99.90;;;;;;5079604;28;20489;-81
2021/05/11 03:29:06;;;;;;;18.33;13.75;;;15.50;99.90;;;;;;5080761;28;20048;-80
2021/05/11 03:31:32;;;;;;;14.20;12.23;;;15.50;99.90;;;;;;5076853;28;20488;-81
2021/05/11 03:33:59;;;;;;;15.35;13.02;;;15.60;99.90;;;;;;5075433;28;20140;-79
2021/05/11 03:36:26;;;;;;;14.23;12.73;;;15.60;99.90;;;;;;5074688;28;20080;-79
2021/05/11 03:38:54;;;;;;;14.45;12.63;;;15.60;99.90;;;;;;5075774;28;20080;-79
2021/05/11 03:41:24;;;;;;;14.27;12.80;;;15.50;99.90;;;;;;5074902;28;20052;-79
2021/05/11 03:43:54;;;;;;;14.85;13.35;;;15.50;99.90;;;;;;5076094;28;20143;-80
2021/05/11 03:46:21;;;;;;;15.88;14.20;;;15.50;99.90;;;;;;5075911;28;20109;-79
2021/05/11 03:48:47;;;;;;;16.00;14.25;;;15.40;99.90;;;;;;5075511;28;20155;-79
2021/05/11 03:51:16;;;;;;;17.50;14.55;;;15.40;99.90;;;;;;5074102;28;20087;-79
2021/05/11 03:53:42;;;;;;;18.23;16.25;;;15.30;99.90;;;;;;5075982;28;20082;-79
2021/05/11 03:56:08;;;;;;;20.13;16.90;;;15.20;99.90;;;;;;5074299;28;20131;-80
2021/05/11 03:58:35;;;;;;;18.23;15.57;;;15.20;99.90;;;;;;5075918;28;20080;-82
2021/05/11 04:01:02;;;;;;;17.15;14.88;;;15.20;99.90;;;;;;5078260;28;20084;-81
2021/05/11 04:03:28;;;;;;;16.33;13.95;;;15.10;99.90;;;;;;5078036;28;20052;-83
2021/05/11 04:05:56;;;;;;;16.83;14.82;;;15.20;99.90;;;;;;5078480;28;20083;-81
2021/05/11 04:08:35;;;;;;;14.43;12.65;;;15.10;99.90;;;;;;5077725;28;20052;-81
2021/05/11 04:11:11;;;;;;;12.20;10.07;;;15.10;99.90;;;;;;5078578;28;20084;-80
2021/05/11 04:13:55;;;;;;;12.73;10.30;;;15.10;99.90;;;;;;5077934;28;20063;-81
2021/05/11 04:16:22;;;;;;;11.82;9.55;;;15.10;99.90;;;;;;5078892;28;20045;-81
2021/05/11 04:18:49;;;;;;;12.43;9.25;;;15.10;99.90;;;;;;5076620;28;20471;-79
2021/05/11 04:21:16;;;;;;;9.65;7.00;;;15.10;99.90;;;;;;5077951;28;20048;-79
2021/05/11 04:23:43;;;;;;;9.48;6.80;;;15.10;99.90;;;;;;5073500;28;20135;-79
2021/05/11 04:26:10;;;;;;;9.60;7.57;;;15.00;99.90;;;;;;5075152;28;20056;-79
2021/05/11 04:28:37;;;;;;;7.95;6.75;;;15.10;99.90;;;;;;5075667;28;20049;-79
2021/05/11 04:31:04;;;;;;;10.75;7.18;;;15.10;99.90;;;;;;5075353;28;20108;-79
2021/05/11 04:33:31;;;;;;;10.32;5.47;;;15.00;99.90;;;;;;5075454;28;20143;-80
2021/05/11 04:35:58;;;;;;;9.13;5.70;;;15.00;99.90;;;;;;5075166;28;20063;-79
2021/05/11 04:38:24;;;;;;;10.02;5.70;;;15.00;99.90;;;;;;5074944;28;20136;-80
2021/05/11 04:40:51;;;;;;;10.90;5.15;;;15.00;99.90;;;;;;5076087;28;20156;-83
2021/05/11 04:43:17;;;;;;;6.50;4.80;;;15.00;99.90;;;;;;5078232;28;20049;-80
2021/05/11 04:45:45;;;;;;;7.65;4.95;;;15.10;99.90;;;;;;5080323;28;20041;-80
2021/05/11 04:48:11;;;;;;;8.48;4.85;;;15.10;99.90;;;;;;5083079;28;20182;-81
2021/05/11 04:50:38;;;;;;;6.38;4.40;;;15.10;99.90;;;;;;5082159;28;20079;-79
2021/05/11 04:53:05;;;;;;;8.60;5.25;;;15.10;99.90;;;;;;5085003;28;20293;-79
2021/05/11 04:55:32;;;;;;;6.95;5.72;;;15.10;99.90;;;;;;5079344;28;20063;-80
2021/05/11 04:57:59;;;;;;;9.82;6.30;;;15.10;99.90;;;;;;5075960;28;20048;-81
2021/05/11 05:00:25;;;;;;;10.50;6.78;;;15.00;99.90;;;;;;5075696;28;20116;-81
2021/05/11 05:02:53;;;;;;;9.30;6.53;;;14.90;99.90;;;;;;5078485;28;20049;-80
2021/05/11 05:05:20;;;;;;;9.88;7.45;;;14.90;99.90;;;;;;5075297;28;20056;-83
2021/05/11 05:07:47;;;;;;;9.73;6.60;;;14.90;99.90;;;;;;5074640;28;20135;-79
2021/05/11 05:10:14;;;;;;;10.00;7.00;;;14.90;99.90;;;;;;5073948;28;20541;-79
2021/05/11 05:12:45;;;;;;;10.95;7.47;;;14.90;99.90;;;;;;5074134;28;20127;-79
2021/05/11 05:15:13;;;;;;;11.40;6.35;;;14.80;99.90;;;;;;5073896;28;20063;-80
2021/05/11 05:17:39;;;;;;;8.35;6.75;;;14.90;99.90;;;;;;5073732;28;20132;-80
2021/05/11 05:20:06;;;;;;;9.75;6.68;;;14.90;99.90;;;;;;5074571;28;20070;-80
2021/05/11 05:22:33;;;;;;;9.45;6.47;;;14.90;99.90;;;;;;5075412;28;20148;-82
2021/05/11 05:25:09;;;;;;;8.55;6.50;;;15.00;99.90;;;;;;5075409;28;20506;-79
2021/05/11 05:27:39;;;;;;;11.52;6.15;;;15.10;99.90;;;;;;5074986;28;20082;-80
2021/05/11 05:30:07;;;;;;;9.02;5.95;;;15.20;99.90;;;;;;5074880;28;20036;-79
2021/05/11 05:32:33;;;;;;;11.50;6.05;;;15.20;99.90;;;;;;5075510;28;20105;-82
2021/05/11 05:35:00;;;;;;;10.48;5.53;;;15.40;99.90;;;;;;5076047;28;20135;-83
2021/05/11 05:37:26;;;;;;;9.20;5.80;;;15.40;99.90;;;;;;5074921;28;20135;-81
2021/05/11 05:39:56;;;;;;;9.38;5.80;;;15.50;99.90;;;;;;5074930;28;20075;-81
2021/05/11 05:42:23;;;;;;;8.07;5.18;;;15.50;99.90;;;;;;5075304;28;20063;-81
2021/05/11 05:44:49;;;;;;;9.10;5.22;;;15.50;99.90;;;;;;5074895;28;20548;-79
2021/05/11 05:47:17;;;;;;;9.10;6.80;;;15.50;99.90;;;;;;5074295;28;20063;-79
2021/05/11 05:49:45;;;;;;;8.50;5.40;;;15.40;99.90;;;;;;5075539;28;20488;-80
2021/05/11 05:52:17;;;;;;;11.10;7.10;;;15.40;99.90;;;;;;5075018;28;20052;-79
2021/05/11 05:54:45;;;;;;;10.52;4.80;;;15.40;99.90;;;;;;5073243;28;20091;-79
2021/05/11 05:57:11;;;;;;;6.22;4.55;;;15.40;99.90;;;;;;5073249;28;20048;-80
2021/05/11 05:59:41;;;;;;;7.57;4.43;;;15.70;99.90;;;;;;5073893;28;20056;-81
2021/05/11 06:02:08;;;;;;;7.82;4.15;;;15.80;99.90;;;;;;5077211;28;20048;-82
2021/05/11 06:04:34;;;;;;;9.48;4.82;;;15.90;99.90;;;;;;5077143;28;20098;-80
2021/05/11 06:07:01;;;;;;;10.20;4.93;;;16.10;99.90;;;;;;5076469;28;20045;-81
2021/05/11 06:09:28;;;;;;;9.70;5.30;;;16.10;99.90;;;;;;5076425;28;20104;-80
2021/05/11 06:11:57;;;;;;;14.05;6.10;;;16.20;99.90;;;;;;5075649;28;20461;-81
2021/05/11 06:14:40;;;;;;;14.05;4.95;;;16.10;99.90;;;;;;5074730;28;20052;-82
2021/05/11 06:17:14;;;;;;;11.88;4.60;;;16.10;99.90;;;;;;5074575;28;20136;-79
2021/05/11 06:19:40;;;;;;;7.40;4.15;;;16.00;99.90;;;;;;5074643;28;20523;-83
2021/05/11 06:22:07;;;;;;;14.88;5.28;;;15.90;99.90;;;;;;5075069;28;20044;-79
2021/05/11 06:24:36;;;;;;;9.52;5.15;;;15.80;99.90;;;;;;5076558;28;20128;-80
2021/05/11 06:27:06;;;;;;;12.95;4.72;;;15.80;99.90;;;;;;5075407;28;20044;-80
2021/05/11 06:29:35;;;;;;;11.18;4.68;;;15.90;99.90;;;;;;5076755;28;20095;-83
2021/05/11 06:32:02;;;;;;;8.73;4.60;;;15.80;99.90;;;;;;5077434;28;20052;-82
2021/05/11 06:34:30;;;;;;;7.50;4.45;;;15.80;99.90;;;;;;5080695;28;20393;-84
2021/05/11 06:36:56;;;;;;;6.75;4.35;;;15.80;99.90;;;;;;5080908;28;20048;-82
2021/05/11 06:39:23;;;;;;;7.78;4.20;;;15.90;99.90;;;;;;5081128;28;20055;-83
2021/05/11 06:41:50;;;;;;;7.82;4.55;;;16.00;99.90;;;;;;5081372;28;20539;-79
2021/05/11 06:44:25;;;;;;;8.07;4.38;;;16.00;99.90;;;;;;5078373;28;20045;-84
2021/05/11 06:50:10;;;;;;;5.38;3.97;;;16.10;99.90;;;;;;5082424;28;20041;-81
2021/05/11 06:55:21;;;;;;;10.30;4.50;;;16.20;99.90;;;;;;5080722;28;20044;-82
2021/05/11 06:57:47;;;;;;;7.43;4.70;;;16.20;99.90;;;;;;5082033;28;20048;-80
2021/05/11 07:00:15;;;;;;;7.68;4.40;;;16.10;99.90;;;;;;5080698;28;20116;-81
2021/05/11 07:02:41;;;;;;;6.60;3.90;;;16.00;99.90;;;;;;5080510;28;20083;-81
2021/05/11 07:05:09;;;;;;;6.97;4.13;;;16.10;99.90;;;;;;5079175;28;20098;-84
2021/05/11 07:07:37;;;;;;;6.18;4.30;;;16.10;99.90;;;;;;5080863;28;20552;-81
2021/05/11 07:10:12;;;;;;;8.98;4.20;;;16.10;99.90;;;;;;5079590;28;20048;-81
2021/05/11 07:15:23;;;;;;;5.63;3.80;;;16.30;99.90;;;;;;5078632;28;20105;-81
2021/05/11 07:17:49;;;;;;;9.63;3.92;;;16.40;99.90;;;;;;5081369;28;20072;-82
2021/05/11 07:20:16;;;;;;;6.50;3.88;;;16.40;99.90;;;;;;5078227;28;20048;-81
2021/05/11 07:22:43;;;;;;;5.18;3.42;;;16.40;99.90;;;;;;5080133;28;20076;-80
2021/05/11 07:25:12;;;;;;;7.00;4.38;;;16.40;99.90;;;;;;5077568;28;20127;-80
2021/05/11 07:30:33;;;;;;;6.68;3.67;;;16.40;99.90;;;;;;5078333;28;20512;-81
2021/05/11 07:32:59;;;;;;;6.20;3.78;;;16.50;99.90;;;;;;5080295;28;20049;-80
2021/05/11 07:35:26;;;;;;;6.93;3.60;;;16.70;99.90;;;;;;5083180;28;20112;-82
2021/05/11 07:37:53;;;;;;;6.53;3.78;;;16.80;99.90;;;;;;5087228;28;20091;-82
2021/05/11 07:40:19;;;;;;;8.85;4.03;;;17.00;99.90;;;;;;5082160;28;20131;-80
2021/05/11 07:42:46;;;;;;;7.03;4.53;;;16.90;99.90;;;;;;5079355;28;20556;-81
2021/05/11 07:45:20;;;;;;;4.78;3.00;;;17.10;99.90;;;;;;5080049;28;20063;-81
2021/05/11 07:48:10;;;;;;;8.95;3.97;;;17.10;99.90;;;;;;5074765;28;20436;-80
2021/05/11 08:02:01;;;;;;;5.35;3.65;;;17.60;99.90;;;;;;5010813;28;20069;-78
2021/05/11 08:04:32;;;;;;;7.95;3.95;;;17.60;99.90;;;;;;5057363;28;20131;-77
2021/05/11 08:15:20;;;;;;;9.85;4.75;;;17.80;99.90;;;;;;5078444;28;20063;-78
2021/05/11 08:17:51;;;;;;;8.15;3.47;;;17.80;99.90;;;;;;5094582;28;20098;-79
2021/05/11 08:20:33;;;;;;;7.07;3.92;;;17.80;99.90;;;;;;5093479;28;20149;-78
2021/05/11 08:28:37;;;;;;;6.35;3.60;;;17.80;99.90;;;;;;5075809;28;20090;-77
2021/05/11 08:31:03;;;;;;;8.68;4.10;;;17.90;99.90;;;;;;5076668;28;20058;-81
2021/05/11 08:33:29;;;;;;;6.80;4.00;;;17.80;99.90;;;;;;5076941;28;20260;-78
2021/05/11 08:35:56;;;;;;;9.52;4.20;;;17.80;99.90;;;;;;5075384;28;20098;-78
2021/05/11 08:38:24;;;;;;;7.72;4.10;;;17.80;99.90;;;;;;5073714;28;20072;-78
2021/05/11 08:40:50;;;;;;;8.20;4.22;;;17.70;99.90;;;;;;5073151;28;20049;-79
2021/05/11 08:43:31;;;;;;;7.45;4.45;;;17.70;99.90;;;;;;5071877;28;20108;-79
2021/05/11 08:46:00;;;;;;;7.32;4.75;;;17.60;99.90;;;;;;5073264;28;20435;-78
2021/05/11 08:48:27;;;;;;;8.85;4.47;;;17.40;99.90;;;;;;5072297;28;20131;-77
2021/05/11 08:50:56;;;;;;;8.55;4.50;;;17.30;99.90;;;;;;5071641;28;20044;-77
2021/05/11 08:53:55;;;;;;;9.35;4.50;;;17.20;99.90;;;;;;5072092;28;20056;-80
2021/05/11 09:04:56;;;;;;;7.65;4.50;;;17.00;99.90;;;;;;5063263;28;20459;-78
2021/05/11 09:07:43;;;;;;;8.00;4.15;;;17.00;99.90;;;;;;5073486;28;20091;-79
2021/05/11 09:24:19;;;;;;;8.32;4.30;;;18.40;99.90;;;;;;5065211;28;20098;-79
2021/05/11 09:26:51;;;;;;;8.02;4.25;;;18.60;99.90;;;;;;5080588;28;20051;-80
2021/05/11 09:29:33;;;;;;;7.15;4.30;;;18.80;99.90;;;;;;5095877;28;20418;-79
2021/05/11 09:32:18;;;;;;;6.18;4.22;;;18.90;99.90;;;;;;5096521;28;20608;-80
2021/05/11 09:35:05;;;;;;;8.80;4.10;;;19.30;99.90;;;;;;5069595;28;20106;-79
2021/05/11 09:54:35;;;;;;;8.43;5.03;;;19.50;99.90;;;;;;5071080;28;20056;-80
2021/05/11 09:57:12;;;;;;;7.70;4.45;;;19.40;99.90;;;;;;5072566;28;20056;-79
2021/05/11 10:48:19;;;;;;;12.63;8.60;;;18.60;99.90;;;;;;5123190;28;20126;-82
2021/05/11 10:50:49;;;;;;;9.68;8.30;;;19.00;99.90;;;;;;5131702;28;20063;-81
2021/05/11 10:53:44;;;;;;;13.48;9.68;;;19.20;99.90;;;;;;5143573;27;20069;-82
2021/05/11 10:56:45;;;;;;;10.65;7.90;;;19.50;99.90;;;;;;5142618;27;20043;-80
2021/05/11 10:59:19;;;;;;;8.93;8.02;;;19.70;99.90;;;;;;5080293;28;20044;-82
2021/05/11 11:01:47;;;;;;;11.30;9.15;;;19.80;99.90;;;;;;5068163;28;20059;-81
2021/05/11 11:04:15;;;;;;;14.20;8.90;;;19.60;99.90;;;;;;5089844;28;20051;-81
2021/05/11 11:07:02;;;;;;;11.32;7.68;;;19.70;99.90;;;;;;5106281;28;20075;-83
2021/05/11 11:09:30;;;;;;;13.68;8.82;;;19.90;99.90;;;;;;5114161;28;20135;-81
2021/05/11 11:11:57;;;;;;;9.88;8.57;;;19.90;99.90;;;;;;5120361;28;20052;-83
2021/05/11 11:14:24;;;;;;;12.82;8.40;;;19.80;99.90;;;;;;5113564;27;20074;-80
2021/05/11 11:16:59;;;;;;;10.95;7.90;;;19.70;99.90;;;;;;5114442;28;20052;-83
2021/05/11 11:19:27;;;;;;;11.63;7.55;;;19.80;99.90;;;;;;5119351;28;20047;-82
2021/05/11 11:22:03;;;;;;;15.52;8.98;;;19.80;99.90;;;;;;5117617;28;20108;-79
2021/05/11 11:24:31;;;;;;;10.82;8.68;;;19.60;99.90;;;;;;5119787;28;20055;-81
2021/05/11 11:26:58;;;;;;;10.95;8.65;;;19.20;99.90;;;;;;5127983;27;20047;-81
2021/05/11 11:29:26;;;;;;;10.63;9.00;;;19.10;99.90;;;;;;5127498;27;20044;-83
2021/05/11 11:31:53;;;;;;;13.80;10.82;;;19.10;99.90;;;;;;5128380;28;20063;-83
2021/05/11 11:34:22;;;;;;;12.00;9.98;;;19.10;99.90;;;;;;5138071;28;20545;-82
2021/05/11 11:36:56;;;;;;;11.85;9.05;;;19.00;99.90;;;;;;5121661;28;20039;-83
2021/05/11 11:39:28;;;;;;;13.55;8.98;;;19.00;99.90;;;;;;5117002;28;20063;-83
2021/05/11 11:41:57;;;;;;;10.90;8.63;;;19.00;99.90;;;;;;5123225;28;20108;-83
2021/05/11 11:44:28;;;;;;;10.05;8.90;;;19.00;99.90;;;;;;5130829;28;20105;-83
2021/05/11 11:47:03;;;;;;;11.43;9.13;;;18.80;99.90;;;;;;5126946;28;20044;-84
2021/05/11 11:49:31;;;;;;;14.90;9.80;;;18.80;99.90;;;;;;5124836;27;20149;-82
2021/05/11 11:52:02;;;;;;;10.70;9.57;;;18.70;99.90;;;;;;5122391;28;20090;-81
2021/05/11 11:54:34;;;;;;;12.93;9.93;;;18.60;99.90;;;;;;5120769;28;20055;-82
2021/05/11 11:59:59;;;;;;;10.60;7.40;;;18.50;99.90;;;;;;5121279;28;20101;-81
2021/05/11 12:02:25;;;;;;;12.68;8.27;;;18.30;99.90;;;;;;5120872;28;20139;-83
2021/05/11 12:04:52;;;;;;;12.75;8.15;;;18.20;99.90;;;;;;5109522;28;20044;-83
2021/05/11 12:07:19;;;;;;;15.00;7.82;;;18.20;99.90;;;;;;5107123;28;20048;-83
2021/05/11 12:09:48;;;;;;;12.60;8.55;;;18.20;99.90;;;;;;5116332;28;20063;-83
2021/05/11 12:12:16;;;;;;;13.02;8.57;;;18.20;99.90;;;;;;5112645;28;20058;-84
2021/05/11 12:14:43;;;;;;;17.15;9.00;;;18.20;99.90;;;;;;5109689;28;20051;-82
2021/05/11 12:17:09;;;;;;;13.68;8.35;;;18.20;99.90;;;;;;5108550;28;20067;-82
2021/05/11 12:19:42;;;;;;;12.63;8.23;;;18.20;99.90;;;;;;5110087;28;20062;-82
2021/05/11 12:22:09;;;;;;;14.68;8.50;;;18.20;99.90;;;;;;5109089;28;20445;-80
2021/05/11 12:24:37;;;;;;;14.77;9.32;;;18.30;99.90;;;;;;5107663;28;20488;-82
2021/05/11 12:27:21;;;;;;;11.35;8.65;;;18.20;99.90;;;;;;5097535;28;20127;-80
2021/05/11 12:30:03;;;;;;;12.85;8.93;;;18.40;99.90;;;;;;5106721;28;20069;-81
2021/05/11 12:32:30;;;;;;;12.97;9.50;;;18.40;99.90;;;;;;5118468;28;20111;-79
2021/05/11 12:35:04;;;;;;;12.85;9.48;;;18.40;99.90;;;;;;5109647;28;20056;-78
2021/05/11 12:37:44;;;;;;;15.45;9.98;;;18.40;99.90;;;;;;5097079;28;20051;-79
2021/05/11 12:40:22;;;;;;;12.85;10.18;;;18.60;99.90;;;;;;5099484;28;20319;-81
2021/05/11 12:42:49;;;;;;;13.00;9.32;;;18.70;99.90;;;;;;5107522;28;20043;-82
2021/05/11 12:45:16;;;;;;;12.70;10.32;;;18.70;99.90;;;;;;5108221;28;20172;-82
2021/05/11 12:47:46;;;;;;;13.95;10.70;;;18.70;99.90;;;;;;5101130;28;20190;-81
2021/05/11 12:50:15;;;;;;;14.50;11.05;;;18.70;99.90;;;;;;5104084;28;20048;-81
2021/05/11 12:52:47;;;;;;;15.85;10.20;;;18.80;99.90;;;;;;5128935;27;20055;-81
2021/05/11 12:55:32;;;;;;;;;;;19.00;99.90;;;;;;5116612;28;20093;-82
2021/05/11 12:58:19;;;;;;;15.65;11.20;;;19.20;99.90;;;;;;5118498;27;19919;-79
2021/05/11 13:00:47;;;;;;;15.65;12.13;;;19.20;99.90;;;;;;5111998;27;20043;-81
2021/05/11 13:03:37;;;;;;;14.27;11.73;;;18.90;99.90;;;;;;5120000;27;20044;-80
2021/05/11 13:17:05;;;;;;;17.60;12.13;;;18.90;99.90;;;;;;5107470;27;20050;-80
2021/05/11 13:22:35;;;;;;;13.68;10.32;;;19.00;99.90;;;;;;5051106;28;20055;-81
2021/05/11 13:25:19;;;;;;;13.98;8.90;;;18.90;99.90;;;;;;5114761;27;20086;-81
2021/05/11 13:27:54;;;;;;;16.67;8.40;;;19.00;99.90;;;;;;5108316;28;20046;-80
2021/05/11 13:30:37;;;;;;;12.43;7.93;;;19.00;99.90;;;;;;5107672;28;20047;-80
2021/05/11 13:33:16;;;;;;;10.75;7.22;;;19.00;99.90;;;;;;5114935;27;20047;-81
2021/05/11 13:35:43;;;;;;;9.73;6.93;;;18.90;99.90;;;;;;5119318;27;20043;-79
2021/05/11 13:38:09;;;;;;;13.75;7.10;;;18.80;99.90;;;;;;5100082;28;20084;-80
2021/05/11 13:40:38;;;;;;;11.07;7.32;;;18.90;99.90;;;;;;5114960;27;20074;-81
2021/05/11 13:43:05;;;;;;;11.35;6.68;;;18.80;99.90;;;;;;5125940;27;20143;-81
2021/05/11 13:45:32;;;;;;;12.82;7.45;;;18.60;99.90;;;;;;5136591;27;20055;-82
2021/05/11 13:48:01;;;;;;;13.27;8.23;;;18.50;99.90;;;;;;5120006;27;20075;-81
2021/05/11 13:50:40;;;;;;;13.85;8.60;;;18.20;99.90;;;;;;5120492;28;20457;-81
2021/05/11 13:53:07;;;;;;;13.23;8.02;;;18.10;99.90;;;;;;5108048;28;20040;-82
2021/05/11 13:55:40;;;;;;;15.13;8.40;;;18.00;99.90;;;;;;5103740;28;20318;-80
2021/05/11 14:03:36;;;;;;;12.35;9.77;;;17.90;99.90;;;;;;5097264;28;20070;-81
2021/05/11 14:06:02;;;;;;;14.05;8.88;;;17.90;99.90;;;;;;5095288;28;20081;-81
2021/05/11 14:08:28;;;;;;;14.23;8.73;;;17.90;99.90;;;;;;5096226;28;20048;-80
2021/05/11 14:10:55;;;;;;;13.35;8.43;;;18.00;99.90;;;;;;5108078;28;20131;-81
2021/05/11 14:13:21;;;;;;;13.30;8.77;;;18.10;99.90;;;;;;5123438;28;20075;-79
2021/05/11 14:15:49;;;;;;;13.45;8.57;;;18.10;99.90;;;;;;5127280;28;20108;-81
2021/05/11 14:18:16;;;;;;;13.35;7.97;;;18.10;99.90;;;;;;5125696;28;20142;-82
2021/05/11 14:20:43;;;;;;;12.30;7.80;;;18.10;99.90;;;;;;5140923;27;20346;-82
2021/05/11 14:23:09;;;;;;;11.48;8.55;;;18.10;99.90;;;;;;5139211;27;20083;-80
2021/05/11 14:25:36;;;;;;;14.63;9.10;;;18.20;99.90;;;;;;5138487;27;20077;-81
2021/05/11 14:28:02;;;;;;;12.82;8.82;;;18.20;99.90;;;;;;5138329;27;20083;-83
2021/05/11 14:30:28;;;;;;;12.45;8.60;;;18.30;99.90;;;;;;5108671;28;20419;-83
2021/05/11 14:32:55;;;;;;;11.57;9.32;;;18.20;99.90;;;;;;5108315;28;20076;-82
2021/05/11 14:35:22;;;;;;;13.35;9.55;;;18.10;99.90;;;;;;5106318;28;20111;-80
2021/05/11 14:37:49;;;;;;;12.48;9.30;;;18.10;99.90;;;;;;5105722;28;20108;-80
2021/05/11 14:40:16;;;;;;;14.95;10.50;;;17.90;99.90;;;;;;5106362;28;20123;-81
2021/05/11 14:42:42;;;;;;;14.18;10.27;;;17.90;99.90;;;;;;5107785;28;20051;-82
2021/05/11 14:45:10;;;;;;;15.57;10.07;;;17.90;99.90;;;;;;5110480;28;20093;-80
2021/05/11 14:47:37;;;;;;;12.68;10.57;;;17.80;99.90;;;;;;5109441;28;20525;-79
2021/05/11 14:50:10;;;;;;;16.88;11.15;;;17.80;99.90;;;;;;5110129;28;20108;-83
2021/05/11 14:52:39;;;;;;;13.57;10.77;;;17.90;99.90;;;;;;5108965;28;20083;-81
2021/05/11 14:55:14;;;;;;;15.07;11.43;;;17.90;99.90;;;;;;5112163;28;20047;-80
2021/05/11 14:57:40;;;;;;;13.35;10.82;;;18.00;99.90;;;;;;5110640;28;20043;-82
2021/05/11 15:00:13;;;;;;;15.63;11.15;;;17.80;99.90;;;;;;5111883;28;20050;-82
2021/05/11 15:02:39;;;;;;;13.07;10.18;;;17.80;99.90;;;;;;5116009;28;20103;-80
2021/05/11 15:05:06;;;;;;;14.73;10.75;;;18.00;99.90;;;;;;5110369;28;20135;-80
2021/05/11 15:07:33;;;;;;;15.68;9.88;;;18.00;99.90;;;;;;5109811;28;20098;-81
2021/05/11 15:10:00;;;;;;;15.35;10.05;;;18.10;99.90;;;;;;5113750;28;20161;-81
2021/05/11 15:12:26;;;;;;;14.68;9.60;;;18.20;99.90;;;;;;5112710;28;20067;-80
2021/05/11 15:14:53;;;;;;;10.68;8.70;;;18.20;99.90;;;;;;5105869;27;20052;-79
2021/05/11 15:20:08;;;;;;;10.88;8.07;;;18.20;99.90;;;;;;5111740;27;20094;-84
2021/05/11 15:22:34;;;;;;;9.68;7.47;;;18.20;99.90;;;;;;5138153;27;20048;-82
2021/05/11 15:25:02;;;;;;;11.55;8.07;;;18.20;99.90;;;;;;5131017;27;20199;-79
2021/05/11 15:27:29;;;;;;;10.43;8.02;;;18.10;99.90;;;;;;5122420;27;20173;-79
2021/05/11 15:29:55;;;;;;;14.70;8.40;;;18.10;99.90;;;;;;5133266;27;20298;-76
2021/05/11 15:32:42;;;;;;;11.73;8.48;;;18.10;99.90;;;;;;5122360;27;20463;-78
2021/05/11 15:35:11;;;;;;;10.60;8.10;;;18.10;99.90;;;;;;5137177;27;20141;-78
2021/05/11 15:37:38;;;;;;;9.75;8.60;;;18.00;99.90;;;;;;5139797;27;20077;-78
2021/05/11 15:40:16;;;;;;;12.45;8.40;;;18.10;99.90;;;;;;5121080;27;20424;-77
2021/05/11 15:42:44;;;;;;;12.50;8.88;;;18.00;99.90;;;;;;5128844;27;20495;-78
2021/05/11 15:45:13;;;;;;;11.20;9.23;;;18.00;99.90;;;;;;5131413;27;20082;-79
2021/05/11 15:47:51;;;;;;;10.25;9.15;;;17.90;99.90;;;;;;5122044;27;20047;-78
2021/05/11 15:50:22;;;;;;;12.10;9.30;;;17.90;99.90;;;;;;5098070;28;20048;-78
2021/05/11 15:52:52;;;;;;;12.30;9.57;;;17.80;99.90;;;;;;5116963;27;20555;-79
2021/05/11 15:55:19;;;;;;;14.70;10.30;;;17.80;99.90;;;;;;5122519;27;20051;-78
2021/05/11 15:57:46;;;;;;;13.73;10.93;;;17.80;99.90;;;;;;5121926;27;20145;-79
2021/05/11 16:00:13;;;;;;;12.27;10.65;;;17.80;99.90;;;;;;5122073;27;20070;-79
2021/05/11 16:02:40;;;;;;;15.18;11.70;;;17.80;99.90;;;;;;5129213;27;20075;-80
2021/05/11 16:05:07;;;;;;;15.27;10.90;;;17.70;99.90;;;;;;5126135;27;20127;-78
2021/05/11 16:07:34;;;;;;;13.07;11.40;;;17.60;99.90;;;;;;5119883;27;20040;-80
2021/05/11 16:10:03;;;;;;;13.95;11.88;;;17.50;99.90;;;;;;5134681;27;20047;-78
2021/05/11 16:12:31;;;;;;;15.13;12.55;;;17.40;99.90;;;;;;5117499;27;20043;-79
2021/05/11 16:14:58;;;;;;;16.67;12.60;;;17.40;99.90;;;;;;5122381;27;20071;-78
2021/05/11 16:17:24;;;;;;;15.52;11.15;;;17.40;99.90;;;;;;5109075;28;20071;-79
2021/05/11 16:19:50;;;;;;;14.13;11.85;;;17.40;99.90;;;;;;5138628;27;20062;-80
2021/05/11 16:22:17;;;;;;;15.35;11.40;;;17.40;99.90;;;;;;5113789;28;20519;-80